LFRO

Lannion-Côte de Granit Airport

Lannion, France
TAF LFRO 230500Z 2306/2406 27003KT CAVOK TEMPO 2308/2312 BKN008 BECMG 2403/2406 OVC008
Issued Valid From Valid To
Apr-23 @ 05:00 UTC
(5 hours ago)
Apr-23 @ 06:00 UTC
(4 hours ago)
Apr-24 @ 06:00 UTC
(in 20 hours)
Apr-23 @ 06:00 to Apr-24 @ 03:00
TAF LFRO 230500Z 2306/2406 27003KT CAVOK
Wind Visibility Clouds Conditions
270° at 3 knots 10,000+ meters
  • No significant clouds
Temporary Apr-23 @ 08:00 to Apr-23 @ 12:00
TEMPO 2308/2312 BKN008
Clouds
  • Broken at 800' AGL
Becoming Apr-24 @ 03:00 to Apr-24 @ 06:00
BECMG 2403/2406 OVC008
Wind Visibility Clouds Conditions
270° at 3 knots 10,000+ meters
  • Overcast at 800' AGL
TAF LFRO 230500Z 2306/2406 27003KT CAVOK TEMPO 2308/2312 BKN008 BECMG 2403/2406 OVC008
Issued Apr-23 @ 05:00 UTC
(5 hours ago)
Valid From Apr-23 @ 06:00 UTC
(4 hours ago)
Valid To Apr-24 @ 06:00 UTC
(in 20 hours)
Apr-23 @ 06:00 - Apr-24 @ 03:00
Wind Visibility
270° at 3 knots 10,000+ meters
Clouds
  • No significant clouds
Conditions
Temporary Apr-23 @ 08:00 - Apr-23 @ 12:00
Clouds
  • Broken at 800' AGL
Becoming Apr-24 @ 03:00 - Apr-24 @ 06:00
Wind Visibility
270° at 3 knots 10,000+ meters
Clouds
  • Overcast at 800' AGL
Conditions